Nissos Chios — SXXL — position and weather

sailwx.info

Track history (hours):
 
Tides and Currents Weather Stations Pressure Air Temp Water Temp Dewpoint Dewpoint Depression Visibility Wind Speed Wind Dir Waves Ship Positions

Nissos Chios

Last reported at 2018-Jul-19 16:25 UTC. Time now 2018-Jul-20 01:04 UTC.
Position N 37°30' E 025°56'.

Length 141 m; draft 5 m.

Type: Ship. MMSI: 240672000.

Date/timePositionNaut miles runAvg speedWind from/ knotsBaromVisibWave heightAir tempDewpointWater temp
2018-Jul-19 16:25N 37°30' E 025°56'1125.7
2018-Jul-19 16:01N 37°30' E 025°42'1326.1
2018-Jul-19 15:30N 37°31' E 025°26'1325.6
2018-Jul-19 15:01N 37°30' E 025°10'1325.6
2018-Jul-19 14:30N 37°32' E 024°54'4324.8
2018-Jul-19 12:45N 37°35' E 023°59'625.5
2018-Jul-19 12:31N 37°37' E 023°52'1223.8
2018-Jul-19 12:01N 37°44' E 023°40'1223.9
2018-Jul-19 11:30N 37°56' E 023°37'0 0.4
2018-Jul-19 11:00N 37°56' E 023°37'0 0.0
2018-Jul-19 10:30N 37°56' E 023°37'0 0.0
2018-Jul-19 10:00N 37°56' E 023°37'0 0.0
2018-Jul-19 09:30N 37°56' E 023°37'0 0.0
2018-Jul-19 09:00N 37°56' E 023°37'0 0.0
2018-Jul-19 08:30N 37°56' E 023°37'0 0.0
2018-Jul-19 08:00N 37°56' E 023°37'0 0.0
2018-Jul-19 07:30N 37°56' E 023°37'611.1
2018-Jul-19 07:01N 37°51' E 023°39'1223.6
2018-Jul-19 06:31N 37°41' E 023°46'1020.8
2018-Jul-19 06:00N 37°36' E 023°58'3720.4
2018-Jul-19 04:13N 37°31' E 024°44'420.6
2018-Jul-19 04:01N 37°32' E 024°49'1020.2
2018-Jul-19 03:31N 37°31' E 025°02'1020.5
2018-Jul-19 03:01N 37°30' E 025°15'1020.2
2018-Jul-19 02:30N 37°30' E 025°28'1019.7
2018-Jul-19 02:00N 37°28' E 025°40'1020.2
2018-Jul-19 01:30N 37°25' E 025°52'12 0.4
2018-Jul-17 18:55N 37°13' E 025°51'1723.2
2018-Jul-17 18:10N 37°11' E 025°29'523.7
2018-Jul-17 17:59N 37°09' E 025°24'3 6.4
2018-Jul-17 17:30N 37°07' E 025°22'1117.6
2018-Jul-17 16:52N 37°06' E 025°08'1 2.7
2018-Jul-17 16:23N 37°05' E 025°08'718.3
2018-Jul-17 16:01N 37°08' E 025°01'3623.0
2018-Jul-17 14:26N 37°19' E 024°18'1022.6
2018-Jul-17 14:00N 37°25' E 024°08'1122.7
2018-Jul-17 13:31N 37°32' E 023°56'1223.6
2018-Jul-17 13:00N 37°39' E 023°44'1122.7
2018-Jul-17 12:31N 37°49' E 023°38'815.4
2018-Jul-17 12:01N 37°56' E 023°37'0 0.0
2018-Jul-17 11:30N 37°56' E 023°37'0 0.0
2018-Jul-17 11:01N 37°56' E 023°37'0 0.0
2018-Jul-17 10:30N 37°56' E 023°37'0 0.0
2018-Jul-17 10:00N 37°56' E 023°37'0 0.0
2018-Jul-17 09:30N 37°56' E 023°37'0 0.0
2018-Jul-17 09:00N 37°56' E 023°37'0 0.0
2018-Jul-17 08:30N 37°56' E 023°37'0 0.0
2018-Jul-17 08:00N 37°56' E 023°37'0 0.0
2018-Jul-17 07:30N 37°56' E 023°37'0 0.0
2018-Jul-17 07:00N 37°56' E 023°37'2 4.0
2018-Jul-17 06:30N 37°54' E 023°38'1019.3
2018-Jul-17 06:00N 37°46' E 023°43'1019.4
2018-Jul-17 05:30N 37°38' E 023°51'1020.4
2018-Jul-17 05:00N 37°31' E 024°00'1220.5
2018-Jul-17 04:25N 37°24' E 024°12'75 2.1
2018-Jul-15 16:34N 37°07' E 025°44'225.6
2018-Jul-15 16:31N 37°08' E 025°42'1122.1
2018-Jul-15 16:00N 37°12' E 025°29'815.8
2018-Jul-15 15:30N 37°06' E 025°22'714.0
2018-Jul-15 15:01N 37°10' E 025°15'7 8.1
2018-Jul-15 14:05N 37°06' E 025°06'223.4
2018-Jul-15 14:01N 37°07' E 025°04'6822.8
2018-Jul-15 11:01N 37°37' E 023°47'023.0
2018-Jul-15 11:00N 37°37' E 023°47'1122.9
2018-Jul-15 10:31N 37°47' E 023°39'1019.8
2018-Jul-15 10:01N 37°56' E 023°37'0 0.0
2018-Jul-15 09:31N 37°56' E 023°37'0 0.0
2018-Jul-15 09:01N 37°56' E 023°37'0 0.0
2018-Jul-15 08:31N 37°56' E 023°37'0 0.0
2018-Jul-15 08:00N 37°56' E 023°37'0 0.0
2018-Jul-15 07:31N 37°56' E 023°37'0 0.0
2018-Jul-15 07:01N 37°56' E 023°37'0 0.0
2018-Jul-15 06:31N 37°56' E 023°37'0 0.0
2018-Jul-15 06:01N 37°56' E 023°37'611.9
2018-Jul-15 05:30N 37°51' E 023°40'1325.1
2018-Jul-15 05:00N 37°40' E 023°48'24 1.5
2018-Jul-14 12:53N 37°44' E 024°17'1025.2
2018-Jul-14 12:30N 37°37' E 024°09'1325.2
2018-Jul-14 11:59N 37°36' E 023°52'1122.2
2018-Jul-14 11:31N 37°42' E 023°41'1224.8
2018-Jul-14 11:01N 37°54' E 023°37'2 4.6
2018-Jul-14 10:30N 37°56' E 023°37'0 0.0
2018-Jul-14 10:00N 37°56' E 023°37'0 0.0
2018-Jul-14 09:30N 37°56' E 023°37'0 0.0
2018-Jul-14 09:00N 37°56' E 023°37'0 0.0
2018-Jul-14 08:30N 37°56' E 023°37'0 0.0
2018-Jul-14 08:00N 37°56' E 023°37'0 0.0
2018-Jul-14 07:30N 37°56' E 023°37'0 0.0
2018-Jul-14 07:00N 37°56' E 023°37'1 2.2
2018-Jul-14 06:31N 37°55' E 023°37'1019.9
2018-Jul-14 06:01N 37°46' E 023°42'5124.3
2018-Jul-14 03:54N 37°31' E 024°44'1025.3
2018-Jul-14 03:31N 37°31' E 024°56'1325.4
2018-Jul-14 03:00N 37°30' E 025°13'1224.2
2018-Jul-14 02:31N 37°33' E 025°27'1625.1
2018-Jul-14 01:53N 37°30' E 025°47'7 0.2
2018-Jul-12 16:11N 37°30' E 025°55'625.9
2018-Jul-12 15:58N 37°32' E 025°49'1125.1
2018-Jul-12 15:30N 37°32' E 025°34'1325.8
2018-Jul-12 15:00N 37°30' E 025°18'1525.2
2018-Jul-12 14:24N 37°31' E 024°59'1025.5
2018-Jul-12 14:00N 37°32' E 024°46'4224.8
2018-Jul-12 12:19N 37°36' E 023°53'825.6
2018-Jul-12 12:01N 37°39' E 023°44'1325.1
2018-Jul-12 11:31N 37°50' E 023°37'713.5
2018-Jul-12 11:00N 37°56' E 023°37'0 0.0
2018-Jul-12 10:30N 37°56' E 023°37'0 0.0
2018-Jul-12 10:00N 37°56' E 023°37'0 0.0
2018-Jul-12 09:30N 37°56' E 023°37'0 0.0
2018-Jul-12 09:00N 37°56' E 023°37'0 0.0
2018-Jul-12 08:30N 37°56' E 023°37'0 0.0
2018-Jul-12 08:00N 37°56' E 023°37'0 0.0
2018-Jul-12 07:30N 37°56' E 023°37'0 0.1
2018-Jul-12 07:01N 37°56' E 023°37'918.1
2018-Jul-12 06:31N 37°48' E 023°41'1223.0
2018-Jul-12 06:00N 37°39' E 023°51'4323.5
2018-Jul-12 04:11N 37°31' E 024°44'423.5
2018-Jul-12 04:00N 37°31' E 024°49'1223.7
2018-Jul-12 03:31N 37°31' E 025°04'1523.1
2018-Jul-12 02:52N 37°32' E 025°22'822.7
2018-Jul-12 02:30N 37°32' E 025°33'1122.7
2018-Jul-12 02:01N 37°29' E 025°46'16 0.5
2018-Jul-10 18:35N 37°13' E 025°50'223.2
2018-Jul-10 18:30N 37°13' E 025°48'1523.0
2018-Jul-10 17:52N 37°13' E 025°30'823.0
2018-Jul-10 17:31N 37°07' E 025°22'4 8.3
2018-Jul-10 17:01N 37°09' E 025°18'910.0
2018-Jul-10 16:08N 37°05' E 025°08'216.6
2018-Jul-10 16:01N 37°06' E 025°06'1325.6
2018-Jul-10 15:30N 37°10' E 024°51'5425.1
2018-Jul-10 13:20N 37°35' E 023°50'825.2
2018-Jul-10 13:01N 37°40' E 023°42'1325.2
2018-Jul-10 12:31N 37°52' E 023°37'4 8.5
2018-Jul-10 12:00N 37°56' E 023°37'0 0.0
2018-Jul-10 11:31N 37°56' E 023°37'0 0.0
2018-Jul-10 11:01N 37°56' E 023°37'0 0.0
2018-Jul-10 10:31N 37°56' E 023°37'0 0.0
2018-Jul-10 10:00N 37°56' E 023°37'0 0.0
2018-Jul-10 09:30N 37°56' E 023°37'0 0.0
2018-Jul-10 09:01N 37°56' E 023°37'0 0.0
2018-Jul-10 08:30N 37°56' E 023°37'0 0.0
2018-Jul-10 08:01N 37°56' E 023°37'0 0.0
2018-Jul-10 07:31N 37°56' E 023°37'0 0.0
2018-Jul-10 07:01N 37°56' E 023°37'1 1.5
2018-Jul-10 06:31N 37°56' E 023°37'1019.4
2018-Jul-10 06:00N 37°47' E 023°42'1020.9
2018-Jul-10 05:30N 37°38' E 023°49'  
Track history (hours):
 
Tides and Currents Weather Stations Pressure Air Temp Water Temp Dewpoint Dewpoint Depression Visibility Wind Speed Wind Dir Waves Ship Positions

Nissos Chios

Last reported at 2018-Jul-19 16:25 UTC. Time now 2018-Jul-20 01:04 UTC.
Position N 37°30' E 025°56'.

Length 141 m; draft 5 m.

Type: Ship. MMSI: 240672000.

Date/timePositionNaut miles runAvg speedWind from/ knotsBaromVisibWave heightAir tempDewpointWater temp
2018-Jul-19 16:25N 37°30' E 025°56'1125.7
2018-Jul-19 16:01N 37°30' E 025°42'1326.1
2018-Jul-19 15:30N 37°31' E 025°26'1325.6
2018-Jul-19 15:01N 37°30' E 025°10'1325.6
2018-Jul-19 14:30N 37°32' E 024°54'4324.8
2018-Jul-19 12:45N 37°35' E 023°59'625.5
2018-Jul-19 12:31N 37°37' E 023°52'1223.8
2018-Jul-19 12:01N 37°44' E 023°40'1223.9
2018-Jul-19 11:30N 37°56' E 023°37'0 0.4
2018-Jul-19 11:00N 37°56' E 023°37'0 0.0
2018-Jul-19 10:30N 37°56' E 023°37'0 0.0
2018-Jul-19 10:00N 37°56' E 023°37'0 0.0
2018-Jul-19 09:30N 37°56' E 023°37'0 0.0
2018-Jul-19 09:00N 37°56' E 023°37'0 0.0
2018-Jul-19 08:30N 37°56' E 023°37'0 0.0
2018-Jul-19 08:00N 37°56' E 023°37'0 0.0
2018-Jul-19 07:30N 37°56' E 023°37'611.1
2018-Jul-19 07:01N 37°51' E 023°39'1223.6
2018-Jul-19 06:31N 37°41' E 023°46'1020.8
2018-Jul-19 06:00N 37°36' E 023°58'3720.4
2018-Jul-19 04:13N 37°31' E 024°44'420.6
2018-Jul-19 04:01N 37°32' E 024°49'1020.2
2018-Jul-19 03:31N 37°31' E 025°02'1020.5
2018-Jul-19 03:01N 37°30' E 025°15'1020.2
2018-Jul-19 02:30N 37°30' E 025°28'1019.7
2018-Jul-19 02:00N 37°28' E 025°40'1020.2
2018-Jul-19 01:30N 37°25' E 025°52'12 0.4
2018-Jul-17 18:55N 37°13' E 025°51'1723.2
2018-Jul-17 18:10N 37°11' E 025°29'523.7
2018-Jul-17 17:59N 37°09' E 025°24'3 6.4
2018-Jul-17 17:30N 37°07' E 025°22'1117.6
2018-Jul-17 16:52N 37°06' E 025°08'1 2.7
2018-Jul-17 16:23N 37°05' E 025°08'718.3
2018-Jul-17 16:01N 37°08' E 025°01'3623.0
2018-Jul-17 14:26N 37°19' E 024°18'1022.6
2018-Jul-17 14:00N 37°25' E 024°08'1122.7
2018-Jul-17 13:31N 37°32' E 023°56'1223.6
2018-Jul-17 13:00N 37°39' E 023°44'1122.7
2018-Jul-17 12:31N 37°49' E 023°38'815.4
2018-Jul-17 12:01N 37°56' E 023°37'0 0.0
2018-Jul-17 11:30N 37°56' E 023°37'0 0.0
2018-Jul-17 11:01N 37°56' E 023°37'0 0.0
2018-Jul-17 10:30N 37°56' E 023°37'0 0.0
2018-Jul-17 10:00N 37°56' E 023°37'0 0.0
2018-Jul-17 09:30N 37°56' E 023°37'0 0.0
2018-Jul-17 09:00N 37°56' E 023°37'0 0.0
2018-Jul-17 08:30N 37°56' E 023°37'0 0.0
2018-Jul-17 08:00N 37°56' E 023°37'0 0.0
2018-Jul-17 07:30N 37°56' E 023°37'0 0.0
2018-Jul-17 07:00N 37°56' E 023°37'2 4.0
2018-Jul-17 06:30N 37°54' E 023°38'1019.3
2018-Jul-17 06:00N 37°46' E 023°43'1019.4
2018-Jul-17 05:30N 37°38' E 023°51'1020.4
2018-Jul-17 05:00N 37°31' E 024°00'1220.5
2018-Jul-17 04:25N 37°24' E 024°12'75 2.1
2018-Jul-15 16:34N 37°07' E 025°44'225.6
2018-Jul-15 16:31N 37°08' E 025°42'1122.1
2018-Jul-15 16:00N 37°12' E 025°29'815.8
2018-Jul-15 15:30N 37°06' E 025°22'714.0
2018-Jul-15 15:01N 37°10' E 025°15'7 8.1
2018-Jul-15 14:05N 37°06' E 025°06'223.4
2018-Jul-15 14:01N 37°07' E 025°04'6822.8
2018-Jul-15 11:01N 37°37' E 023°47'023.0
2018-Jul-15 11:00N 37°37' E 023°47'1122.9
2018-Jul-15 10:31N 37°47' E 023°39'1019.8
2018-Jul-15 10:01N 37°56' E 023°37'0 0.0
2018-Jul-15 09:31N 37°56' E 023°37'0 0.0
2018-Jul-15 09:01N 37°56' E 023°37'0 0.0
2018-Jul-15 08:31N 37°56' E 023°37'0 0.0
2018-Jul-15 08:00N 37°56' E 023°37'0 0.0
2018-Jul-15 07:31N 37°56' E 023°37'0 0.0
2018-Jul-15 07:01N 37°56' E 023°37'0 0.0
2018-Jul-15 06:31N 37°56' E 023°37'0 0.0
2018-Jul-15 06:01N 37°56' E 023°37'611.9
2018-Jul-15 05:30N 37°51' E 023°40'1325.1
2018-Jul-15 05:00N 37°40' E 023°48'24 1.5
2018-Jul-14 12:53N 37°44' E 024°17'1025.2
2018-Jul-14 12:30N 37°37' E 024°09'1325.2
2018-Jul-14 11:59N 37°36' E 023°52'1122.2
2018-Jul-14 11:31N 37°42' E 023°41'1224.8
2018-Jul-14 11:01N 37°54' E 023°37'2 4.6
2018-Jul-14 10:30N 37°56' E 023°37'0 0.0
2018-Jul-14 10:00N 37°56' E 023°37'0 0.0
2018-Jul-14 09:30N 37°56' E 023°37'0 0.0
2018-Jul-14 09:00N 37°56' E 023°37'0 0.0
2018-Jul-14 08:30N 37°56' E 023°37'0 0.0
2018-Jul-14 08:00N 37°56' E 023°37'0 0.0
2018-Jul-14 07:30N 37°56' E 023°37'0 0.0
2018-Jul-14 07:00N 37°56' E 023°37'1 2.2
2018-Jul-14 06:31N 37°55' E 023°37'1019.9
2018-Jul-14 06:01N 37°46' E 023°42'5124.3
2018-Jul-14 03:54N 37°31' E 024°44'1025.3
2018-Jul-14 03:31N 37°31' E 024°56'1325.4
2018-Jul-14 03:00N 37°30' E 025°13'1224.2
2018-Jul-14 02:31N 37°33' E 025°27'1625.1
2018-Jul-14 01:53N 37°30' E 025°47'7 0.2
2018-Jul-12 16:11N 37°30' E 025°55'625.9
2018-Jul-12 15:58N 37°32' E 025°49'1125.1
2018-Jul-12 15:30N 37°32' E 025°34'1325.8
2018-Jul-12 15:00N 37°30' E 025°18'1525.2
2018-Jul-12 14:24N 37°31' E 024°59'1025.5
2018-Jul-12 14:00N 37°32' E 024°46'4224.8
2018-Jul-12 12:19N 37°36' E 023°53'825.6
2018-Jul-12 12:01N 37°39' E 023°44'1325.1
2018-Jul-12 11:31N 37°50' E 023°37'713.5
2018-Jul-12 11:00N 37°56' E 023°37'0 0.0
2018-Jul-12 10:30N 37°56' E 023°37'0 0.0
2018-Jul-12 10:00N 37°56' E 023°37'0 0.0
2018-Jul-12 09:30N 37°56' E 023°37'0 0.0
2018-Jul-12 09:00N 37°56' E 023°37'0 0.0
2018-Jul-12 08:30N 37°56' E 023°37'0 0.0
2018-Jul-12 08:00N 37°56' E 023°37'0 0.0
2018-Jul-12 07:30N 37°56' E 023°37'0 0.1
2018-Jul-12 07:01N 37°56' E 023°37'918.1
2018-Jul-12 06:31N 37°48' E 023°41'1223.0
2018-Jul-12 06:00N 37°39' E 023°51'4323.5
2018-Jul-12 04:11N 37°31' E 024°44'423.5
2018-Jul-12 04:00N 37°31' E 024°49'1223.7
2018-Jul-12 03:31N 37°31' E 025°04'1523.1
2018-Jul-12 02:52N 37°32' E 025°22'822.7
2018-Jul-12 02:30N 37°32' E 025°33'1122.7
2018-Jul-12 02:01N 37°29' E 025°46'16 0.5
2018-Jul-10 18:35N 37°13' E 025°50'223.2
2018-Jul-10 18:30N 37°13' E 025°48'1523.0
2018-Jul-10 17:52N 37°13' E 025°30'823.0
2018-Jul-10 17:31N 37°07' E 025°22'4 8.3
2018-Jul-10 17:01N 37°09' E 025°18'910.0
2018-Jul-10 16:08N 37°05' E 025°08'216.6
2018-Jul-10 16:01N 37°06' E 025°06'1325.6
2018-Jul-10 15:30N 37°10' E 024°51'5425.1
2018-Jul-10 13:20N 37°35' E 023°50'825.2
2018-Jul-10 13:01N 37°40' E 023°42'1325.2
2018-Jul-10 12:31N 37°52' E 023°37'4 8.5
2018-Jul-10 12:00N 37°56' E 023°37'0 0.0
2018-Jul-10 11:31N 37°56' E 023°37'0 0.0
2018-Jul-10 11:01N 37°56' E 023°37'0 0.0
2018-Jul-10 10:31N 37°56' E 023°37'0 0.0
2018-Jul-10 10:00N 37°56' E 023°37'0 0.0
2018-Jul-10 09:30N 37°56' E 023°37'0 0.0
2018-Jul-10 09:01N 37°56' E 023°37'0 0.0
2018-Jul-10 08:30N 37°56' E 023°37'0 0.0
2018-Jul-10 08:01N 37°56' E 023°37'0 0.0
2018-Jul-10 07:31N 37°56' E 023°37'0 0.0
2018-Jul-10 07:01N 37°56' E 023°37'1 1.5
2018-Jul-10 06:31N 37°56' E 023°37'1019.4
2018-Jul-10 06:00N 37°47' E 023°42'1020.9
2018-Jul-10 05:30N 37°38' E 023°49'  

Dump ship's entire track history